KEVW

Evanston-Uinta County Burns Field Airport

Evanston, Wyoming, USA
METAR KEVW 140453Z AUTO 21005KT 10SM CLR M02/M12 A3054 RMK AO2 SLP361 T10171122
Observed Flight Rules
Nov-14 @ 04:53 UTC (12 minutes ago) Visual Flight Rules
Wind Visibility Clouds
210° at 5 knots 10 miles
  • Clear skies
Temperatures Readings
Current -2°C / 28°F
Dewpoint -12°C / 10°F
Humidity 47%
Altimeter 30.54" Hg
Pressure 1036.1 hPa
Elevation 2177
METAR KEVW 140453Z AUTO 21005KT 10SM CLR M02/M12 A3054 RMK AO2 SLP361 T10171122
Observed Flight Rules
Nov-14 @ 04:53 UTC
(12 minutes ago)
VFR
Wind Visibility
210° at 5 knots 10 miles
Clouds
  • Clear skies
Temperature Dewpoint
-2°C / 28°F -12°C / 10°F
Humidity Altimeter Pressure
47% 30.54" Hg 1036.1 hPa